sensor_id;sensor_type;location;lat;lon;timestamp;P1;durP1;ratioP1;P2;durP2;ratioP2
40533;SDS011;26233;51.894;10.192;2023-07-30T00:02:01;1.90;;;1.40;;
40533;SDS011;26233;51.894;10.192;2023-07-30T00:04:30;1.75;;;1.65;;
40533;SDS011;26233;51.894;10.192;2023-07-30T00:06:57;1.40;;;1.30;;
40533;SDS011;26233;51.894;10.192;2023-07-30T00:09:24;1.50;;;1.40;;
40533;SDS011;26233;51.894;10.192;2023-07-30T00:11:51;1.42;;;1.33;;
40533;SDS011;26233;51.894;10.192;2023-07-30T00:14:18;1.50;;;1.40;;
40533;SDS011;26233;51.894;10.192;2023-07-30T00:16:45;1.70;;;1.60;;
40533;SDS011;26233;51.894;10.192;2023-07-30T00:19:12;1.77;;;1.67;;
40533;SDS011;26233;51.894;10.192;2023-07-30T00:21:41;1.70;;;1.45;;
40533;SDS011;26233;51.894;10.192;2023-07-30T00:24:11;1.48;;;1.38;;
40533;SDS011;26233;51.894;10.192;2023-07-30T00:26:38;2.25;;;1.60;;
40533;SDS011;26233;51.894;10.192;2023-07-30T00:29:05;1.40;;;1.30;;
40533;SDS011;26233;51.894;10.192;2023-07-30T00:31:32;1.50;;;1.40;;
40533;SDS011;26233;51.894;10.192;2023-07-30T00:33:59;1.52;;;1.42;;
40533;SDS011;26233;51.894;10.192;2023-07-30T00:36:27;1.50;;;1.40;;
40533;SDS011;26233;51.894;10.192;2023-07-30T00:38:55;1.92;;;1.50;;
40533;SDS011;26233;51.894;10.192;2023-07-30T00:41:22;1.60;;;1.50;;
40533;SDS011;26233;51.894;10.192;2023-07-30T00:43:49;1.50;;;1.40;;
40533;SDS011;26233;51.894;10.192;2023-07-30T00:46:16;1.58;;;1.48;;
40533;SDS011;26233;51.894;10.192;2023-07-30T00:48:44;1.52;;;1.42;;
40533;SDS011;26233;51.894;10.192;2023-07-30T00:51:11;1.85;;;1.45;;
40533;SDS011;26233;51.894;10.192;2023-07-30T00:53:41;1.65;;;1.55;;
40533;SDS011;26233;51.894;10.192;2023-07-30T00:56:09;1.73;;;1.50;;
40533;SDS011;26233;51.894;10.192;2023-07-30T00:58:37;1.60;;;1.50;;
40533;SDS011;26233;51.894;10.192;2023-07-30T01:01:04;1.60;;;1.50;;
40533;SDS011;26233;51.894;10.192;2023-07-30T01:03:32;1.95;;;1.60;;
40533;SDS011;26233;51.894;10.192;2023-07-30T01:05:59;1.77;;;1.67;;
40533;SDS011;26233;51.894;10.192;2023-07-30T01:08:26;1.50;;;1.40;;
40533;SDS011;26233;51.894;10.192;2023-07-30T01:10:53;1.30;;;1.20;;
40533;SDS011;26233;51.894;10.192;2023-07-30T01:13:23;1.40;;;1.30;;
40533;SDS011;26233;51.894;10.192;2023-07-30T01:15:50;1.48;;;1.38;;
40533;SDS011;26233;51.894;10.192;2023-07-30T01:18:18;2.22;;;1.60;;
40533;SDS011;26233;51.894;10.192;2023-07-30T01:20:45;1.40;;;1.30;;
40533;SDS011;26233;51.894;10.192;2023-07-30T01:23:13;1.40;;;1.30;;
40533;SDS011;26233;51.894;10.192;2023-07-30T01:25:40;1.50;;;1.40;;
40533;SDS011;26233;51.894;10.192;2023-07-30T01:28:11;1.80;;;1.55;;
40533;SDS011;26233;51.894;10.192;2023-07-30T01:30:42;1.60;;;1.50;;
40533;SDS011;26233;51.894;10.192;2023-07-30T01:33:11;3.00;;;1.52;;
40533;SDS011;26233;51.894;10.192;2023-07-30T01:35:39;1.60;;;1.50;;
40533;SDS011;26233;51.894;10.192;2023-07-30T01:38:09;1.67;;;1.55;;
40533;SDS011;26233;51.894;10.192;2023-07-30T01:40:38;1.85;;;1.50;;
40533;SDS011;26233;51.894;10.192;2023-07-30T01:43:06;1.60;;;1.50;;
40533;SDS011;26233;51.894;10.192;2023-07-30T01:45:34;1.35;;;1.25;;
40533;SDS011;26233;51.894;10.192;2023-07-30T01:48:01;1.90;;;1.80;;
40533;SDS011;26233;51.894;10.192;2023-07-30T01:50:28;1.58;;;1.48;;
40533;SDS011;26233;51.894;10.192;2023-07-30T01:52:55;1.40;;;1.30;;
40533;SDS011;26233;51.894;10.192;2023-07-30T01:55:22;1.70;;;1.60;;
40533;SDS011;26233;51.894;10.192;2023-07-30T01:57:51;1.80;;;1.40;;
40533;SDS011;26233;51.894;10.192;2023-07-30T02:00:18;1.58;;;1.48;;
40533;SDS011;26233;51.894;10.192;2023-07-30T02:02:45;1.80;;;1.33;;
40533;SDS011;26233;51.894;10.192;2023-07-30T02:05:12;1.50;;;1.40;;
40533;SDS011;26233;51.894;10.192;2023-07-30T02:07:39;2.33;;;1.58;;
40533;SDS011;26233;51.894;10.192;2023-07-30T02:10:06;1.60;;;1.50;;
40533;SDS011;26233;51.894;10.192;2023-07-30T02:12:34;1.55;;;1.45;;
40533;SDS011;26233;51.894;10.192;2023-07-30T02:15:03;1.73;;;1.63;;
40533;SDS011;26233;51.894;10.192;2023-07-30T02:17:31;1.50;;;1.40;;
40533;SDS011;26233;51.894;10.192;2023-07-30T02:19:58;1.90;;;1.80;;
40533;SDS011;26233;51.894;10.192;2023-07-30T02:22:25;1.75;;;1.65;;
40533;SDS011;26233;51.894;10.192;2023-07-30T02:24:52;1.65;;;1.55;;
40533;SDS011;26233;51.894;10.192;2023-07-30T02:27:22;2.08;;;1.90;;
40533;SDS011;26233;51.894;10.192;2023-07-30T02:29:49;1.70;;;1.60;;
40533;SDS011;26233;51.894;10.192;2023-07-30T02:32:17;1.40;;;1.30;;
40533;SDS011;26233;51.894;10.192;2023-07-30T02:34:44;1.70;;;1.60;;
40533;SDS011;26233;51.894;10.192;2023-07-30T02:37:11;1.45;;;1.35;;
40533;SDS011;26233;51.894;10.192;2023-07-30T02:39:39;1.80;;;1.70;;
40533;SDS011;26233;51.894;10.192;2023-07-30T02:42:06;3.45;;;1.70;;
40533;SDS011;26233;51.894;10.192;2023-07-30T02:44:33;2.13;;;1.83;;
40533;SDS011;26233;51.894;10.192;2023-07-30T02:47:00;1.80;;;1.70;;
40533;SDS011;26233;51.894;10.192;2023-07-30T02:49:29;1.77;;;1.67;;
40533;SDS011;26233;51.894;10.192;2023-07-30T02:51:56;1.80;;;1.70;;
40533;SDS011;26233;51.894;10.192;2023-07-30T02:54:23;2.03;;;1.85;;
40533;SDS011;26233;51.894;10.192;2023-07-30T02:56:50;2.10;;;1.90;;
40533;SDS011;26233;51.894;10.192;2023-07-30T02:59:17;1.58;;;1.48;;
40533;SDS011;26233;51.894;10.192;2023-07-30T03:01:44;1.80;;;1.70;;
40533;SDS011;26233;51.894;10.192;2023-07-30T03:04:11;1.90;;;1.77;;
40533;SDS011;26233;51.894;10.192;2023-07-30T03:06:39;1.70;;;1.60;;
40533;SDS011;26233;51.894;10.192;2023-07-30T03:09:06;2.42;;;1.70;;
40533;SDS011;26233;51.894;10.192;2023-07-30T03:11:33;1.70;;;1.60;;
40533;SDS011;26233;51.894;10.192;2023-07-30T03:14:00;1.80;;;1.70;;
40533;SDS011;26233;51.894;10.192;2023-07-30T03:16:27;2.20;;;2.00;;
40533;SDS011;26233;51.894;10.192;2023-07-30T03:18:54;2.35;;;1.95;;
40533;SDS011;26233;51.894;10.192;2023-07-30T03:21:21;1.83;;;1.73;;
40533;SDS011;26233;51.894;10.192;2023-07-30T03:23:50;2.05;;;1.90;;
40533;SDS011;26233;51.894;10.192;2023-07-30T03:26:17;1.80;;;1.70;;
40533;SDS011;26233;51.894;10.192;2023-07-30T03:28:44;1.95;;;1.83;;
40533;SDS011;26233;51.894;10.192;2023-07-30T03:31:11;1.90;;;1.80;;
40533;SDS011;26233;51.894;10.192;2023-07-30T03:33:38;1.83;;;1.67;;
40533;SDS011;26233;51.894;10.192;2023-07-30T03:36:08;2.05;;;1.70;;
40533;SDS011;26233;51.894;10.192;2023-07-30T03:38:36;2.38;;;1.67;;
40533;SDS011;26233;51.894;10.192;2023-07-30T03:41:05;1.90;;;1.80;;
40533;SDS011;26233;51.894;10.192;2023-07-30T03:43:32;1.90;;;1.80;;
40533;SDS011;26233;51.894;10.192;2023-07-30T03:46:00;1.75;;;1.65;;
40533;SDS011;26233;51.894;10.192;2023-07-30T03:48:27;3.05;;;2.10;;
40533;SDS011;26233;51.894;10.192;2023-07-30T03:50:54;2.30;;;2.10;;
40533;SDS011;26233;51.894;10.192;2023-07-30T03:53:22;1.98;;;1.80;;
40533;SDS011;26233;51.894;10.192;2023-07-30T03:55:49;2.38;;;2.00;;
40533;SDS011;26233;51.894;10.192;2023-07-30T03:58:17;1.92;;;1.60;;
40533;SDS011;26233;51.894;10.192;2023-07-30T04:00:44;1.92;;;1.80;;
40533;SDS011;26233;51.894;10.192;2023-07-30T04:03:11;1.73;;;1.63;;
40533;SDS011;26233;51.894;10.192;2023-07-30T04:05:38;2.10;;;1.90;;
40533;SDS011;26233;51.894;10.192;2023-07-30T04:08:05;2.13;;;1.92;;
40533;SDS011;26233;51.894;10.192;2023-07-30T04:10:32;2.25;;;1.75;;
40533;SDS011;26233;51.894;10.192;2023-07-30T04:13:00;1.75;;;1.65;;
40533;SDS011;26233;51.894;10.192;2023-07-30T04:15:28;2.72;;;1.95;;
40533;SDS011;26233;51.894;10.192;2023-07-30T04:17:55;3.10;;;2.22;;
40533;SDS011;26233;51.894;10.192;2023-07-30T04:20:22;2.40;;;1.92;;
40533;SDS011;26233;51.894;10.192;2023-07-30T04:22:49;2.08;;;1.88;;
40533;SDS011;26233;51.894;10.192;2023-07-30T04:25:17;2.20;;;1.90;;
40533;SDS011;26233;51.894;10.192;2023-07-30T04:27:44;2.20;;;2.00;;
40533;SDS011;26233;51.894;10.192;2023-07-30T04:30:11;2.50;;;2.30;;
40533;SDS011;26233;51.894;10.192;2023-07-30T04:32:40;2.20;;;1.98;;
40533;SDS011;26233;51.894;10.192;2023-07-30T04:35:07;2.03;;;1.83;;
40533;SDS011;26233;51.894;10.192;2023-07-30T04:37:34;2.65;;;1.88;;
40533;SDS011;26233;51.894;10.192;2023-07-30T04:40:01;3.30;;;2.10;;
40533;SDS011;26233;51.894;10.192;2023-07-30T04:42:29;1.90;;;1.80;;
40533;SDS011;26233;51.894;10.192;2023-07-30T04:44:56;3.38;;;2.03;;
40533;SDS011;26233;51.894;10.192;2023-07-30T04:47:23;2.28;;;2.00;;
40533;SDS011;26233;51.894;10.192;2023-07-30T04:49:51;2.40;;;2.20;;
40533;SDS011;26233;51.894;10.192;2023-07-30T04:52:19;2.63;;;2.42;;
40533;SDS011;26233;51.894;10.192;2023-07-30T04:54:46;2.50;;;2.30;;
40533;SDS011;26233;51.894;10.192;2023-07-30T04:57:13;2.85;;;2.65;;
40533;SDS011;26233;51.894;10.192;2023-07-30T04:59:40;3.00;;;2.42;;
40533;SDS011;26233;51.894;10.192;2023-07-30T05:02:07;2.67;;;2.47;;
40533;SDS011;26233;51.894;10.192;2023-07-30T05:04:34;3.42;;;2.35;;
40533;SDS011;26233;51.894;10.192;2023-07-30T05:07:02;2.60;;;2.38;;
40533;SDS011;26233;51.894;10.192;2023-07-30T05:09:30;3.10;;;2.80;;
40533;SDS011;26233;51.894;10.192;2023-07-30T05:11:57;2.65;;;2.45;;
40533;SDS011;26233;51.894;10.192;2023-07-30T05:14:24;3.60;;;3.05;;
40533;SDS011;26233;51.894;10.192;2023-07-30T05:16:51;3.00;;;2.80;;
40533;SDS011;26233;51.894;10.192;2023-07-30T05:19:18;2.72;;;2.53;;
40533;SDS011;26233;51.894;10.192;2023-07-30T05:21:45;3.30;;;3.00;;
40533;SDS011;26233;51.894;10.192;2023-07-30T05:24:13;3.72;;;3.35;;
40533;SDS011;26233;51.894;10.192;2023-07-30T05:26:41;4.05;;;3.75;;
40533;SDS011;26233;51.894;10.192;2023-07-30T05:29:08;4.10;;;3.80;;
40533;SDS011;26233;51.894;10.192;2023-07-30T05:31:35;3.78;;;3.47;;
40533;SDS011;26233;51.894;10.192;2023-07-30T05:34:02;3.95;;;3.60;;
40533;SDS011;26233;51.894;10.192;2023-07-30T05:36:30;3.67;;;3.42;;
40533;SDS011;26233;51.894;10.192;2023-07-30T05:38:57;4.20;;;3.80;;
40533;SDS011;26233;51.894;10.192;2023-07-30T05:41:25;4.30;;;3.90;;
40533;SDS011;26233;51.894;10.192;2023-07-30T05:43:52;4.13;;;3.72;;
40533;SDS011;26233;51.894;10.192;2023-07-30T05:46:19;3.78;;;3.47;;
40533;SDS011;26233;51.894;10.192;2023-07-30T05:48:46;3.30;;;3.00;;
40533;SDS011;26233;51.894;10.192;2023-07-30T05:51:13;4.53;;;3.50;;
40533;SDS011;26233;51.894;10.192;2023-07-30T05:53:40;3.88;;;3.55;;
40533;SDS011;26233;51.894;10.192;2023-07-30T05:56:07;3.47;;;3.17;;
40533;SDS011;26233;51.894;10.192;2023-07-30T05:58:37;3.28;;;3.08;;
40533;SDS011;26233;51.894;10.192;2023-07-30T06:01:04;3.17;;;2.88;;
40533;SDS011;26233;51.894;10.192;2023-07-30T06:03:31;3.35;;;3.10;;
40533;SDS011;26233;51.894;10.192;2023-07-30T06:05:58;2.85;;;2.53;;
40533;SDS011;26233;51.894;10.192;2023-07-30T06:08:27;2.78;;;2.58;;
40533;SDS011;26233;51.894;10.192;2023-07-30T06:10:55;2.67;;;2.47;;
40533;SDS011;26233;51.894;10.192;2023-07-30T06:13:26;2.83;;;2.60;;
40533;SDS011;26233;51.894;10.192;2023-07-30T06:15:55;3.80;;;2.50;;
40533;SDS011;26233;51.894;10.192;2023-07-30T06:18:22;2.80;;;2.50;;
40533;SDS011;26233;51.894;10.192;2023-07-30T06:20:49;2.60;;;2.40;;
40533;SDS011;26233;51.894;10.192;2023-07-30T06:23:16;2.22;;;2.00;;
40533;SDS011;26233;51.894;10.192;2023-07-30T06:25:43;2.45;;;2.20;;
40533;SDS011;26233;51.894;10.192;2023-07-30T06:28:10;1.92;;;1.70;;
40533;SDS011;26233;51.894;10.192;2023-07-30T06:30:38;2.78;;;1.77;;
40533;SDS011;26233;51.894;10.192;2023-07-30T06:33:06;2.13;;;1.92;;
40533;SDS011;26233;51.894;10.192;2023-07-30T06:35:33;2.85;;;2.03;;
40533;SDS011;26233;51.894;10.192;2023-07-30T06:38:00;1.60;;;1.50;;
40533;SDS011;26233;51.894;10.192;2023-07-30T06:40:27;1.60;;;1.48;;
40533;SDS011;26233;51.894;10.192;2023-07-30T06:42:54;2.80;;;1.73;;
40533;SDS011;26233;51.894;10.192;2023-07-30T06:45:21;1.77;;;1.65;;
40533;SDS011;26233;51.894;10.192;2023-07-30T06:47:49;1.92;;;1.70;;
40533;SDS011;26233;51.894;10.192;2023-07-30T06:50:17;2.35;;;1.67;;
40533;SDS011;26233;51.894;10.192;2023-07-30T06:52:44;2.45;;;1.50;;
40533;SDS011;26233;51.894;10.192;2023-07-30T06:55:11;3.22;;;1.83;;
40533;SDS011;26233;51.894;10.192;2023-07-30T06:57:38;2.40;;;1.77;;
40533;SDS011;26233;51.894;10.192;2023-07-30T07:00:06;1.65;;;1.55;;
40533;SDS011;26233;51.894;10.192;2023-07-30T07:02:34;1.75;;;1.20;;
40533;SDS011;26233;51.894;10.192;2023-07-30T07:05:01;1.80;;;1.63;;
40533;SDS011;26233;51.894;10.192;2023-07-30T07:07:30;2.17;;;1.75;;
40533;SDS011;26233;51.894;10.192;2023-07-30T07:09:57;3.75;;;2.17;;
40533;SDS011;26233;51.894;10.192;2023-07-30T07:12:24;2.05;;;1.40;;
40533;SDS011;26233;51.894;10.192;2023-07-30T07:14:51;5.82;;;1.63;;
40533;SDS011;26233;51.894;10.192;2023-07-30T07:17:19;1.70;;;1.45;;
40533;SDS011;26233;51.894;10.192;2023-07-30T07:19:46;2.97;;;1.58;;
40533;SDS011;26233;51.894;10.192;2023-07-30T07:22:13;2.50;;;1.60;;
40533;SDS011;26233;51.894;10.192;2023-07-30T07:24:44;3.03;;;1.50;;
40533;SDS011;26233;51.894;10.192;2023-07-30T07:27:11;1.60;;;1.45;;
40533;SDS011;26233;51.894;10.192;2023-07-30T07:29:38;1.50;;;1.40;;
40533;SDS011;26233;51.894;10.192;2023-07-30T07:32:05;1.67;;;1.58;;
40533;SDS011;26233;51.894;10.192;2023-07-30T07:34:33;1.83;;;1.63;;
40533;SDS011;26233;51.894;10.192;2023-07-30T07:37:00;2.00;;;1.58;;
40533;SDS011;26233;51.894;10.192;2023-07-30T07:39:28;1.67;;;1.50;;
40533;SDS011;26233;51.894;10.192;2023-07-30T07:41:56;1.73;;;1.40;;
40533;SDS011;26233;51.894;10.192;2023-07-30T07:44:23;1.95;;;1.70;;
40533;SDS011;26233;51.894;10.192;2023-07-30T07:46:50;2.13;;;1.70;;
40533;SDS011;26233;51.894;10.192;2023-07-30T07:49:18;1.75;;;1.65;;
40533;SDS011;26233;51.894;10.192;2023-07-30T07:51:45;2.13;;;1.60;;
40533;SDS011;26233;51.894;10.192;2023-07-30T07:54:12;2.05;;;1.60;;
40533;SDS011;26233;51.894;10.192;2023-07-30T07:56:39;2.45;;;1.73;;
40533;SDS011;26233;51.894;10.192;2023-07-30T07:59:07;1.50;;;1.40;;
40533;SDS011;26233;51.894;10.192;2023-07-30T08:01:34;2.60;;;1.80;;
40533;SDS011;26233;51.894;10.192;2023-07-30T08:04:01;2.33;;;1.60;;
40533;SDS011;26233;51.894;10.192;2023-07-30T08:06:29;2.47;;;1.70;;
40533;SDS011;26233;51.894;10.192;2023-07-30T08:08:57;2.20;;;1.73;;
40533;SDS011;26233;51.894;10.192;2023-07-30T08:11:24;2.25;;;1.67;;
40533;SDS011;26233;51.894;10.192;2023-07-30T08:13:51;1.58;;;1.48;;
40533;SDS011;26233;51.894;10.192;2023-07-30T08:16:20;1.70;;;1.60;;
40533;SDS011;26233;51.894;10.192;2023-07-30T08:18:47;1.60;;;1.50;;
40533;SDS011;26233;51.894;10.192;2023-07-30T08:21:14;1.60;;;1.50;;
40533;SDS011;26233;51.894;10.192;2023-07-30T08:23:42;2.22;;;1.27;;
40533;SDS011;26233;51.894;10.192;2023-07-30T08:26:09;1.70;;;1.60;;
40533;SDS011;26233;51.894;10.192;2023-07-30T08:28:36;1.75;;;1.60;;
40533;SDS011;26233;51.894;10.192;2023-07-30T08:31:05;3.00;;;1.50;;
40533;SDS011;26233;51.894;10.192;2023-07-30T08:33:33;1.80;;;1.60;;
40533;SDS011;26233;51.894;10.192;2023-07-30T08:36:00;2.67;;;1.70;;
40533;SDS011;26233;51.894;10.192;2023-07-30T08:38:28;1.48;;;1.27;;
40533;SDS011;26233;51.894;10.192;2023-07-30T08:40:55;1.52;;;1.40;;
40533;SDS011;26233;51.894;10.192;2023-07-30T08:43:23;2.85;;;1.40;;
40533;SDS011;26233;51.894;10.192;2023-07-30T08:45:50;1.75;;;1.50;;
40533;SDS011;26233;51.894;10.192;2023-07-30T08:48:17;1.90;;;1.40;;
40533;SDS011;26233;51.894;10.192;2023-07-30T08:50:46;1.40;;;1.30;;
40533;SDS011;26233;51.894;10.192;2023-07-30T08:53:14;1.77;;;1.35;;
40533;SDS011;26233;51.894;10.192;2023-07-30T08:55:41;1.50;;;1.40;;
40533;SDS011;26233;51.894;10.192;2023-07-30T08:58:09;2.38;;;1.45;;
40533;SDS011;26233;51.894;10.192;2023-07-30T09:00:38;1.40;;;1.20;;
40533;SDS011;26233;51.894;10.192;2023-07-30T09:03:07;1.88;;;1.40;;
40533;SDS011;26233;51.894;10.192;2023-07-30T09:05:36;1.42;;;1.33;;
40533;SDS011;26233;51.894;10.192;2023-07-30T09:08:05;1.67;;;1.52;;
40533;SDS011;26233;51.894;10.192;2023-07-30T09:10:33;1.50;;;1.30;;
40533;SDS011;26233;51.894;10.192;2023-07-30T09:13:01;1.20;;;1.10;;
40533;SDS011;26233;51.894;10.192;2023-07-30T09:15:29;1.95;;;1.42;;
40533;SDS011;26233;51.894;10.192;2023-07-30T09:17:58;1.30;;;1.20;;
40533;SDS011;26233;51.894;10.192;2023-07-30T09:20:25;1.50;;;1.35;;
40533;SDS011;26233;51.894;10.192;2023-07-30T09:22:56;1.65;;;1.50;;
40533;SDS011;26233;51.894;10.192;2023-07-30T09:25:26;2.33;;;1.60;;
40533;SDS011;26233;51.894;10.192;2023-07-30T09:27:53;1.50;;;1.40;;
40533;SDS011;26233;51.894;10.192;2023-07-30T09:30:22;2.03;;;1.70;;
40533;SDS011;26233;51.894;10.192;2023-07-30T09:32:50;2.00;;;1.45;;
40533;SDS011;26233;51.894;10.192;2023-07-30T09:35:19;2.30;;;1.58;;
40533;SDS011;26233;51.894;10.192;2023-07-30T09:37:47;1.65;;;1.55;;
40533;SDS011;26233;51.894;10.192;2023-07-30T09:40:15;1.40;;;1.30;;
40533;SDS011;26233;51.894;10.192;2023-07-30T09:42:45;2.10;;;1.35;;
40533;SDS011;26233;51.894;10.192;2023-07-30T09:45:18;2.40;;;1.42;;
40533;SDS011;26233;51.894;10.192;2023-07-30T09:47:48;1.50;;;1.40;;
40533;SDS011;26233;51.894;10.192;2023-07-30T09:50:17;1.65;;;1.40;;
40533;SDS011;26233;51.894;10.192;2023-07-30T09:52:44;1.50;;;1.40;;
40533;SDS011;26233;51.894;10.192;2023-07-30T09:55:12;1.30;;;1.20;;
40533;SDS011;26233;51.894;10.192;2023-07-30T09:57:39;1.60;;;1.48;;
40533;SDS011;26233;51.894;10.192;2023-07-30T10:00:08;1.67;;;1.48;;
40533;SDS011;26233;51.894;10.192;2023-07-30T10:02:37;2.25;;;1.45;;
40533;SDS011;26233;51.894;10.192;2023-07-30T10:05:08;1.23;;;1.13;;
40533;SDS011;26233;51.894;10.192;2023-07-30T10:07:40;1.00;;;0.90;;
40533;SDS011;26233;51.894;10.192;2023-07-30T10:10:15;1.23;;;1.13;;
40533;SDS011;26233;51.894;10.192;2023-07-30T10:12:42;2.13;;;1.48;;
40533;SDS011;26233;51.894;10.192;2023-07-30T10:15:11;1.52;;;1.10;;
40533;SDS011;26233;51.894;10.192;2023-07-30T10:17:38;1.15;;;1.05;;
40533;SDS011;26233;51.894;10.192;2023-07-30T10:20:21;1.30;;;1.20;;
40533;SDS011;26233;51.894;10.192;2023-07-30T10:22:51;1.23;;;1.10;;
40533;SDS011;26233;51.894;10.192;2023-07-30T10:25:24;1.10;;;1.00;;
40533;SDS011;26233;51.894;10.192;2023-07-30T10:27:54;1.00;;;1.00;;
40533;SDS011;26233;51.894;10.192;2023-07-30T10:30:27;1.10;;;1.00;;
40533;SDS011;26233;51.894;10.192;2023-07-30T10:32:58;1.15;;;1.00;;
40533;SDS011;26233;51.894;10.192;2023-07-30T10:35:39;1.42;;;1.10;;
40533;SDS011;26233;51.894;10.192;2023-07-30T10:38:15;1.00;;;1.00;;
40533;SDS011;26233;51.894;10.192;2023-07-30T10:41:02;1.05;;;0.80;;
40533;SDS011;26233;51.894;10.192;2023-07-30T10:43:33;1.27;;;1.08;;
40533;SDS011;26233;51.894;10.192;2023-07-30T10:46:03;1.17;;;1.02;;
40533;SDS011;26233;51.894;10.192;2023-07-30T10:48:31;1.30;;;1.20;;
40533;SDS011;26233;51.894;10.192;2023-07-30T10:51:00;1.00;;;0.90;;
40533;SDS011;26233;51.894;10.192;2023-07-30T10:53:32;1.27;;;1.00;;
40533;SDS011;26233;51.894;10.192;2023-07-30T10:56:01;1.60;;;1.33;;
40533;SDS011;26233;51.894;10.192;2023-07-30T10:58:30;1.42;;;1.05;;
40533;SDS011;26233;51.894;10.192;2023-07-30T11:00:58;1.52;;;1.30;;
40533;SDS011;26233;51.894;10.192;2023-07-30T11:03:28;1.77;;;1.38;;
40533;SDS011;26233;51.894;10.192;2023-07-30T11:05:56;1.73;;;1.20;;
40533;SDS011;26233;51.894;10.192;2023-07-30T11:08:34;2.20;;;1.35;;
40533;SDS011;26233;51.894;10.192;2023-07-30T11:11:03;1.73;;;1.40;;
40533;SDS011;26233;51.894;10.192;2023-07-30T11:13:34;1.40;;;1.20;;
40533;SDS011;26233;51.894;10.192;2023-07-30T11:16:03;1.42;;;1.30;;
40533;SDS011;26233;51.894;10.192;2023-07-30T11:18:33;1.20;;;1.10;;
40533;SDS011;26233;51.894;10.192;2023-07-30T11:21:04;1.45;;;1.30;;
40533;SDS011;26233;51.894;10.192;2023-07-30T11:23:31;2.05;;;1.20;;
40533;SDS011;26233;51.894;10.192;2023-07-30T11:26:00;1.27;;;1.17;;
40533;SDS011;26233;51.894;10.192;2023-07-30T11:28:28;1.88;;;1.27;;
40533;SDS011;26233;51.894;10.192;2023-07-30T11:30:57;2.40;;;1.20;;
40533;SDS011;26233;51.894;10.192;2023-07-30T11:33:26;2.45;;;1.25;;
40533;SDS011;26233;51.894;10.192;2023-07-30T11:35:55;1.92;;;1.27;;
40533;SDS011;26233;51.894;10.192;2023-07-30T11:38:22;1.58;;;1.05;;
40533;SDS011;26233;51.894;10.192;2023-07-30T11:40:51;2.30;;;1.45;;
40533;SDS011;26233;51.894;10.192;2023-07-30T11:43:19;2.42;;;1.27;;
40533;SDS011;26233;51.894;10.192;2023-07-30T11:45:48;1.40;;;1.13;;
40533;SDS011;26233;51.894;10.192;2023-07-30T11:48:15;1.40;;;1.30;;
40533;SDS011;26233;51.894;10.192;2023-07-30T11:50:45;2.13;;;1.05;;
40533;SDS011;26233;51.894;10.192;2023-07-30T11:53:15;1.25;;;1.10;;
40533;SDS011;26233;51.894;10.192;2023-07-30T11:55:43;2.15;;;1.20;;
40533;SDS011;26233;51.894;10.192;2023-07-30T11:58:12;1.30;;;1.17;;
40533;SDS011;26233;51.894;10.192;2023-07-30T12:00:40;2.08;;;1.20;;
40533;SDS011;26233;51.894;10.192;2023-07-30T12:03:10;1.55;;;1.17;;
40533;SDS011;26233;51.894;10.192;2023-07-30T12:05:38;2.38;;;1.30;;
40533;SDS011;26233;51.894;10.192;2023-07-30T12:08:06;2.38;;;1.50;;
40533;SDS011;26233;51.894;10.192;2023-07-30T12:10:42;3.20;;;1.27;;
40533;SDS011;26233;51.894;10.192;2023-07-30T12:13:11;1.80;;;1.15;;
40533;SDS011;26233;51.894;10.192;2023-07-30T12:15:38;2.00;;;1.30;;
40533;SDS011;26233;51.894;10.192;2023-07-30T12:18:06;1.27;;;1.17;;
40533;SDS011;26233;51.894;10.192;2023-07-30T12:20:34;1.45;;;1.20;;
40533;SDS011;26233;51.894;10.192;2023-07-30T12:23:01;2.28;;;1.30;;
40533;SDS011;26233;51.894;10.192;2023-07-30T12:25:29;1.40;;;1.13;;
40533;SDS011;26233;51.894;10.192;2023-07-30T12:27:57;1.83;;;1.30;;
40533;SDS011;26233;51.894;10.192;2023-07-30T12:30:24;2.30;;;1.30;;
40533;SDS011;26233;51.894;10.192;2023-07-30T12:32:52;2.70;;;1.38;;
40533;SDS011;26233;51.894;10.192;2023-07-30T12:35:20;1.60;;;1.23;;
40533;SDS011;26233;51.894;10.192;2023-07-30T12:37:47;2.85;;;1.35;;
40533;SDS011;26233;51.894;10.192;2023-07-30T12:40:14;1.30;;;1.20;;
40533;SDS011;26233;51.894;10.192;2023-07-30T12:42:41;2.13;;;1.40;;
40533;SDS011;26233;51.894;10.192;2023-07-30T12:45:10;1.35;;;1.20;;
40533;SDS011;26233;51.894;10.192;2023-07-30T12:47:37;1.33;;;1.20;;
40533;SDS011;26233;51.894;10.192;2023-07-30T12:50:04;1.75;;;1.40;;
40533;SDS011;26233;51.894;10.192;2023-07-30T12:52:32;1.63;;;1.17;;
40533;SDS011;26233;51.894;10.192;2023-07-30T12:55:00;1.55;;;1.27;;
40533;SDS011;26233;51.894;10.192;2023-07-30T12:57:28;1.67;;;1.20;;
40533;SDS011;26233;51.894;10.192;2023-07-30T12:59:56;3.05;;;1.60;;
40533;SDS011;26233;51.894;10.192;2023-07-30T13:02:24;2.10;;;1.50;;
40533;SDS011;26233;51.894;10.192;2023-07-30T13:04:51;1.90;;;1.17;;
40533;SDS011;26233;51.894;10.192;2023-07-30T13:07:19;2.20;;;1.20;;
40533;SDS011;26233;51.894;10.192;2023-07-30T13:09:46;1.58;;;1.30;;
40533;SDS011;26233;51.894;10.192;2023-07-30T13:12:13;1.95;;;1.23;;
40533;SDS011;26233;51.894;10.192;2023-07-30T13:14:40;1.42;;;1.33;;
40533;SDS011;26233;51.894;10.192;2023-07-30T13:17:06;1.23;;;1.13;;
40533;SDS011;26233;51.894;10.192;2023-07-30T13:19:34;1.25;;;1.15;;
40533;SDS011;26233;51.894;10.192;2023-07-30T13:22:01;1.85;;;1.40;;
40533;SDS011;26233;51.894;10.192;2023-07-30T13:24:28;2.20;;;1.30;;
40533;SDS011;26233;51.894;10.192;2023-07-30T13:26:56;1.45;;;1.30;;
40533;SDS011;26233;51.894;10.192;2023-07-30T13:29:24;1.42;;;1.10;;
40533;SDS011;26233;51.894;10.192;2023-07-30T13:31:51;1.40;;;1.30;;
40533;SDS011;26233;51.894;10.192;2023-07-30T13:34:18;2.35;;;1.40;;
40533;SDS011;26233;51.894;10.192;2023-07-30T13:36:46;1.70;;;1.25;;
40533;SDS011;26233;51.894;10.192;2023-07-30T13:39:13;1.52;;;1.20;;
40533;SDS011;26233;51.894;10.192;2023-07-30T13:41:40;1.50;;;1.40;;
40533;SDS011;26233;51.894;10.192;2023-07-30T13:44:08;1.52;;;1.42;;
40533;SDS011;26233;51.894;10.192;2023-07-30T13:46:36;1.75;;;1.40;;
40533;SDS011;26233;51.894;10.192;2023-07-30T13:49:03;2.45;;;1.45;;
40533;SDS011;26233;51.894;10.192;2023-07-30T13:51:30;3.05;;;1.42;;
40533;SDS011;26233;51.894;10.192;2023-07-30T13:53:59;1.50;;;1.40;;
40533;SDS011;26233;51.894;10.192;2023-07-30T13:56:26;1.60;;;1.45;;
40533;SDS011;26233;51.894;10.192;2023-07-30T13:58:54;1.75;;;1.42;;
40533;SDS011;26233;51.894;10.192;2023-07-30T14:01:21;1.73;;;1.27;;
40533;SDS011;26233;51.894;10.192;2023-07-30T14:03:48;1.95;;;1.40;;
40533;SDS011;26233;51.894;10.192;2023-07-30T14:06:15;1.58;;;1.45;;
40533;SDS011;26233;51.894;10.192;2023-07-30T14:08:43;1.80;;;1.40;;
40533;SDS011;26233;51.894;10.192;2023-07-30T14:11:11;1.48;;;1.27;;
40533;SDS011;26233;51.894;10.192;2023-07-30T14:13:38;1.42;;;1.30;;
40533;SDS011;26233;51.894;10.192;2023-07-30T14:16:05;1.80;;;1.70;;
40533;SDS011;26233;51.894;10.192;2023-07-30T14:18:33;2.15;;;1.67;;
40533;SDS011;26233;51.894;10.192;2023-07-30T14:21:00;1.70;;;1.50;;
40533;SDS011;26233;51.894;10.192;2023-07-30T14:23:28;1.90;;;1.70;;
40533;SDS011;26233;51.894;10.192;2023-07-30T14:25:55;2.10;;;1.90;;
40533;SDS011;26233;51.894;10.192;2023-07-30T14:28:24;2.28;;;1.70;;
40533;SDS011;26233;51.894;10.192;2023-07-30T14:30:51;2.15;;;1.70;;
40533;SDS011;26233;51.894;10.192;2023-07-30T14:33:18;1.42;;;1.33;;
40533;SDS011;26233;51.894;10.192;2023-07-30T14:35:45;2.55;;;1.60;;
40533;SDS011;26233;51.894;10.192;2023-07-30T14:38:12;2.10;;;1.90;;